Pagrindinis puslapis
METAR-TAF:

METAR-TAF

Oro uostai :

Vekšė, Švedija

platuma: 56-51N, ilguma: 014-50E, Aukštis: 199 m

Dabartinis oras

Ataskaita buvo paskelbta 29 minutes, ne 20:20 UTC
Vėjas 5 kt iš Pietryčių
Temperatūra 21°C
Drėgmė 53%
Slėgis 1017 hPa
Matomumas 10 km arba daugiau

METAR: ESMX 172020Z AUTO 14005KT 9999 NCD 21/11 Q1017

Laikas: 22:49 (20:49 UTC)

Prognozė

Ataskaita buvo paskelbta 6 valandos ir 19 minutes, ne 14:30 UTC
Prognozė galioja nuo 17 metu 15 UTC su 17 metu 19 UTC
Vėjas 7 kt iš Pietų
Matomumas 10 km arba daugiau
nėra debesų žemiau 1500 m ir nėra kamuolinių lietaus debesų

TAF: ESMX 171430Z 1715/1719 17007KT CAVOK

Orai ataskaitas ir orų prognozės (METAR, TAF).

turimą stotys yra geltonos ir raudonos taškus žemėlapyje.

Perkelti pele per norėdami pamatyti stoties vardą.

Tada spustelėkite, norėdami matyti oro stebėjimo ir prognozės.

Norėdami pakeisti žemėlapį: spustelėkite ant žalios mygtukų su juodo kryžiaus žemyn,; žalią mygtuką su brūkšneliu, jei norite nutolinti; arba žalių rodyklių gretimoms žemėlapius.


METAR-TAF: